Time;durP1;ratioP1;P1;durP2;ratioP2;P2;SDS_P1;SDS_P2;PMS_P1;PMS_P2;Temp;Humidity;BMP_temperature;BMP_pressure;BME280_temperature;BME280_humidity;BME280_pressure;Samples;Min_cycle;Max_cycle;Signal;HPM_P1;HPM_P2
2022/09/27 00:00:23;;;;;;;3.70;1.30;;;11.20;99.90;;;;;;4972548;28;20661;-90
2022/09/27 00:02:50;;;;;;;4.87;1.53;;;11.20;99.90;;;;;;4956439;28;20513;-91
2022/09/27 00:05:16;;;;;;;4.87;1.30;;;11.10;99.90;;;;;;4972416;28;20182;-91
2022/09/27 00:07:43;;;;;;;3.33;1.37;;;11.10;99.90;;;;;;4972166;28;20569;-91
2022/09/27 00:10:09;;;;;;;6.37;1.60;;;11.10;99.90;;;;;;4957438;28;20580;-91
2022/09/27 00:12:36;;;;;;;4.87;1.47;;;11.10;99.90;;;;;;4972475;28;20172;-92
2022/09/27 00:15:02;;;;;;;2.93;1.07;;;11.30;99.90;;;;;;4974284;28;20525;-91
2022/09/27 00:17:28;;;;;;;3.23;1.20;;;11.10;99.90;;;;;;4979511;28;20161;-91
2022/09/27 00:19:56;;;;;;;4.33;1.30;;;11.00;99.90;;;;;;4994785;28;20172;-89
2022/09/27 00:22:23;;;;;;;5.43;1.73;;;11.00;99.90;;;;;;4992770;28;20174;-88
2022/09/27 00:24:49;;;;;;;4.03;1.30;;;11.20;99.90;;;;;;4993318;28;20196;-90
2022/09/27 00:27:15;;;;;;;4.10;1.37;;;11.00;99.90;;;;;;4994632;28;20180;-88
2022/09/27 00:29:45;;;;;;;4.90;1.27;;;10.90;99.90;;;;;;4995635;28;20165;-90
2022/09/27 00:32:13;;;;;;;6.37;1.60;;;10.90;99.90;;;;;;4996029;28;20157;-90
2022/09/27 00:34:43;;;;;;;4.43;1.40;;;11.00;99.90;;;;;;4995916;28;20157;-90
2022/09/27 00:37:24;;;;;;;3.30;1.20;;;10.90;99.90;;;;;;4995940;28;20156;-92
2022/09/27 00:39:51;;;;;;;7.43;1.30;;;11.00;99.90;;;;;;4995990;28;20164;-91
2022/09/27 00:42:40;;;;;;;3.40;1.17;;;11.00;99.90;;;;;;4995180;28;20152;-91
2022/09/27 00:48:32;;;;;;;4.77;1.20;;;11.00;99.90;;;;;;4957664;29;20584;-91
2022/09/27 00:51:06;;;;;;;5.07;1.23;;;11.00;99.90;;;;;;4986602;28;20168;-91
2022/09/27 00:53:50;;;;;;;3.03;1.00;;;10.90;99.90;;;;;;4995574;28;20235;-91
2022/09/27 00:56:23;;;;;;;4.80;1.10;;;10.90;99.90;;;;;;4991732;28;20196;-90
2022/09/27 00:59:07;;;;;;;3.27;0.90;;;11.00;99.90;;;;;;4990663;28;20165;-91
2022/09/27 01:01:34;;;;;;;4.60;1.17;;;10.90;99.90;;;;;;4983683;28;20187;-92
2022/09/27 01:04:12;;;;;;;3.73;1.20;;;10.90;99.90;;;;;;4999138;28;20184;-92
2022/09/27 01:06:38;;;;;;;3.07;1.20;;;11.00;99.90;;;;;;4999152;28;20184;-90
2022/09/27 01:09:06;;;;;;;4.00;1.30;;;11.00;99.90;;;;;;4996953;28;20275;-90
2022/09/27 01:12:08;;;;;;;4.03;1.20;;;11.10;99.90;;;;;;4995648;28;20167;-92
2022/09/27 01:15:00;;;;;;;3.50;1.37;;;10.90;99.90;;;;;;4978865;28;20180;-91
2022/09/27 01:18:07;;;;;;;6.57;1.53;;;10.90;99.90;;;;;;4980851;28;20271;-92
2022/09/27 01:21:02;;;;;;;4.70;1.10;;;11.00;99.90;;;;;;4980604;28;20652;-90
2022/09/27 01:23:47;;;;;;;3.40;1.03;;;11.00;99.90;;;;;;4912239;28;20273;-89
2022/09/27 01:27:14;;;;;;;3.20;1.30;;;11.10;99.90;;;;;;4964106;28;20176;-89
2022/09/27 01:30:14;;;;;;;4.13;1.30;;;11.10;99.90;;;;;;4920470;28;20267;-90
2022/09/27 01:33:07;;;;;;;4.80;1.40;;;11.10;99.90;;;;;;4974743;28;20180;-90
2022/09/27 01:36:00;;;;;;;4.00;1.10;;;11.10;99.90;;;;;;4974725;28;20177;-90
2022/09/27 01:38:33;;;;;;;3.47;1.00;;;11.20;99.90;;;;;;4974245;28;20184;-90
2022/09/27 01:41:10;;;;;;;6.87;1.30;;;11.20;99.90;;;;;;4974746;28;20520;-90
2022/09/27 01:43:47;;;;;;;3.97;1.27;;;11.10;99.90;;;;;;4974367;28;20247;-90
2022/09/27 01:46:20;;;;;;;4.77;1.37;;;11.20;99.90;;;;;;4974439;28;20176;-90
2022/09/27 01:48:48;;;;;;;3.07;1.40;;;11.10;99.90;;;;;;4974044;28;20208;-89
2022/09/27 01:51:22;;;;;;;3.63;1.20;;;11.10;99.90;;;;;;4975379;28;20173;-90
2022/09/27 01:53:52;;;;;;;3.27;1.30;;;11.00;99.90;;;;;;4974509;28;20267;-90
2022/09/27 01:56:30;;;;;;;4.63;1.27;;;10.90;99.90;;;;;;4974821;28;20207;-91
2022/09/27 01:59:08;;;;;;;4.40;1.43;;;10.80;99.90;;;;;;4974444;28;20208;-90
2022/09/27 02:01:37;;;;;;;2.43;1.23;;;10.80;99.90;;;;;;4969906;28;20720;-90
2022/09/27 02:04:09;;;;;;;3.90;1.40;;;10.80;99.90;;;;;;4974358;28;20213;-91
2022/09/27 02:06:38;;;;;;;6.43;1.50;;;11.00;99.90;;;;;;4975010;28;20262;-90
2022/09/27 02:09:28;;;;;;;3.93;1.53;;;11.10;99.90;;;;;;4974561;28;20274;-90
2022/09/27 02:11:59;;;;;;;6.10;1.37;;;11.00;99.90;;;;;;4975572;28;20173;-90
2022/09/27 02:14:34;;;;;;;3.10;1.50;;;11.10;99.90;;;;;;4974221;28;20188;-91
2022/09/27 02:17:35;;;;;;;3.80;1.30;;;11.10;99.90;;;;;;4958196;28;20223;-90
2022/09/27 02:20:29;;;;;;;2.50;1.20;;;11.10;99.90;;;;;;4951010;28;20248;-90
2022/09/27 02:23:18;;;;;;;3.37;1.30;;;11.10;99.90;;;;;;4983441;28;20176;-92
2022/09/27 02:25:56;;;;;;;6.40;1.60;;;11.00;99.90;;;;;;4973875;28;20263;-89
2022/09/27 02:28:32;;;;;;;2.73;1.33;;;11.00;99.90;;;;;;4980982;28;20239;-89
2022/09/27 02:30:58;;;;;;;5.50;1.40;;;11.00;99.90;;;;;;4974012;28;20230;-90
2022/09/27 02:33:31;;;;;;;3.83;1.60;;;10.90;99.90;;;;;;4973765;28;20641;-90
2022/09/27 02:35:57;;;;;;;2.70;1.50;;;10.90;99.90;;;;;;4975709;28;20172;-91
2022/09/27 02:38:25;;;;;;;4.43;1.60;;;10.90;99.90;;;;;;4975124;28;20684;-89
2022/09/27 02:40:51;;;;;;;6.43;1.60;;;10.90;99.90;;;;;;4974105;28;20176;-90
2022/09/27 02:43:19;;;;;;;5.30;1.40;;;10.80;99.90;;;;;;4973875;28;20184;-91
2022/09/27 02:46:11;;;;;;;7.70;1.83;;;10.90;99.90;;;;;;4957637;28;20280;-91
2022/09/27 02:49:04;;;;;;;4.80;1.37;;;11.20;99.90;;;;;;4934959;29;20224;-92
2022/09/27 02:51:53;;;;;;;4.43;1.83;;;11.00;99.90;;;;;;4973898;28;20181;-92
2022/09/27 02:54:23;;;;;;;3.33;1.23;;;10.90;99.90;;;;;;4973990;28;20220;-91
2022/09/27 02:57:10;;;;;;;5.43;1.27;;;10.90;99.90;;;;;;4974125;28;20267;-92
2022/09/27 03:00:09;;;;;;;5.27;1.30;;;10.90;99.90;;;;;;4987276;28;20200;-92
2022/09/27 03:02:39;;;;;;;4.10;1.37;;;10.90;99.90;;;;;;4992448;28;20188;-90
2022/09/27 03:05:15;;;;;;;4.67;1.90;;;10.90;99.90;;;;;;4997022;28;20196;-91
2022/09/27 03:07:43;;;;;;;3.53;1.43;;;11.00;99.90;;;;;;4994722;28;20212;-90
2022/09/27 03:10:36;;;;;;;3.93;1.73;;;10.90;99.90;;;;;;4974232;28;20616;-92
2022/09/27 03:13:03;;;;;;;5.80;1.53;;;10.90;99.90;;;;;;4979390;28;20192;-91
2022/09/27 03:15:29;;;;;;;5.27;1.77;;;10.90;99.90;;;;;;4988117;28;20211;-92
2022/09/27 03:17:55;;;;;;;3.70;1.70;;;10.90;99.90;;;;;;4974855;28;20668;-92
2022/09/27 03:20:21;;;;;;;4.70;1.70;;;11.00;99.90;;;;;;4993082;28;20176;-93
2022/09/27 03:22:47;;;;;;;4.77;1.63;;;10.90;99.90;;;;;;4996650;28;20160;-92
2022/09/27 03:25:15;;;;;;;5.73;1.60;;;10.90;99.90;;;;;;4992979;28;20203;-92
2022/09/27 03:27:43;;;;;;;3.87;1.40;;;11.10;99.90;;;;;;4978182;28;20212;-90
2022/09/27 03:30:20;;;;;;;3.63;1.50;;;11.00;99.90;;;;;;4959052;28;20169;-91
2022/09/27 03:32:46;;;;;;;6.07;1.70;;;11.10;99.90;;;;;;4981415;28;20180;-91
2022/09/27 03:35:13;;;;;;;4.80;1.70;;;11.00;99.90;;;;;;4973636;28;20557;-91
2022/09/27 03:37:40;;;;;;;7.37;1.83;;;11.00;99.90;;;;;;4981964;28;20191;-91
2022/09/27 03:40:07;;;;;;;3.83;1.90;;;10.80;99.90;;;;;;4986100;28;20177;-91
2022/09/27 03:42:33;;;;;;;5.17;1.67;;;10.80;99.90;;;;;;4957383;28;20720;-92
2022/09/27 03:45:00;;;;;;;5.13;1.50;;;10.80;99.90;;;;;;4991329;28;20177;-92
2022/09/27 03:47:26;;;;;;;4.57;1.40;;;10.90;99.90;;;;;;4987745;28;20172;-92
2022/09/27 03:49:52;;;;;;;3.50;1.70;;;10.80;99.90;;;;;;4992851;28;20176;-92
2022/09/27 03:52:18;;;;;;;2.73;1.30;;;10.70;99.90;;;;;;4992444;28;20161;-90
2022/09/27 03:54:46;;;;;;;6.50;1.30;;;10.80;99.90;;;;;;4978503;28;20192;-92
2022/09/27 03:57:12;;;;;;;4.67;1.40;;;10.90;99.90;;;;;;4975343;28;20172;-91
2022/09/27 03:59:39;;;;;;;6.57;1.87;;;10.90;99.90;;;;;;4973864;28;20286;-91
2022/09/27 04:02:08;;;;;;;4.43;1.60;;;10.80;99.90;;;;;;4972881;28;20207;-92
2022/09/27 04:04:52;;;;;;;3.23;1.50;;;10.80;99.90;;;;;;4973294;28;20184;-91
2022/09/27 04:07:17;;;;;;;4.60;1.70;;;10.90;99.90;;;;;;4973581;28;20192;-92
2022/09/27 04:09:45;;;;;;;4.90;1.90;;;10.90;99.90;;;;;;4973204;28;20172;-91
2022/09/27 04:12:12;;;;;;;4.33;1.80;;;10.90;99.90;;;;;;4974049;28;20179;-93
2022/09/27 04:14:40;;;;;;;4.67;1.90;;;10.90;99.90;;;;;;4977869;28;20175;-94
2022/09/27 04:17:07;;;;;;;8.37;2.33;;;10.80;99.90;;;;;;4988084;28;20164;-95
2022/09/27 04:19:32;;;;;;;4.60;2.10;;;10.80;99.90;;;;;;4995101;28;20168;-93
2022/09/27 04:21:58;;;;;;;4.10;1.90;;;10.80;99.90;;;;;;4995091;28;20260;-91
2022/09/27 04:24:24;;;;;;;4.03;1.80;;;10.80;99.90;;;;;;4995248;28;20183;-92
2022/09/27 04:26:57;;;;;;;3.93;2.00;;;10.80;99.90;;;;;;4994209;28;20207;-91
2022/09/27 04:29:24;;;;;;;4.20;1.87;;;10.80;99.90;;;;;;4972302;28;20224;-91
2022/09/27 04:31:54;;;;;;;4.20;2.00;;;10.70;99.90;;;;;;4980112;28;20191;-91
2022/09/27 04:37:43;;;;;;;4.97;2.83;;;10.70;99.90;;;;;;4962315;28;20188;-91
2022/09/27 04:40:09;;;;;;;4.63;3.10;;;10.70;99.90;;;;;;4978742;28;20176;-93
2022/09/27 04:42:35;;;;;;;6.33;3.23;;;10.80;99.90;;;;;;4987368;28;20208;-92
2022/09/27 04:45:01;;;;;;;5.93;5.03;;;10.90;99.90;;;;;;4994824;28;20164;-93
2022/09/27 04:47:28;;;;;;;4.50;3.33;;;10.80;99.90;;;;;;4991362;28;20196;-91
2022/09/27 04:49:53;;;;;;;7.43;4.07;;;10.90;99.90;;;;;;4986740;28;20183;-92
2022/09/27 04:52:25;;;;;;;7.73;3.77;;;11.00;99.90;;;;;;4982776;28;20173;-92
2022/09/27 04:54:54;;;;;;;5.53;3.97;;;10.90;99.90;;;;;;4974290;28;20579;-91
2022/09/27 04:57:22;;;;;;;5.17;3.43;;;11.00;99.90;;;;;;4957077;28;20271;-91
2022/09/27 04:59:49;;;;;;;6.77;3.80;;;10.90;99.90;;;;;;4959531;28;20203;-90
2022/09/27 05:02:15;;;;;;;6.90;4.10;;;10.80;99.90;;;;;;4973627;28;20200;-93
2022/09/27 05:04:41;;;;;;;7.13;3.90;;;10.70;99.90;;;;;;4973169;28;20251;-90
2022/09/27 05:07:06;;;;;;;5.57;3.47;;;10.70;99.90;;;;;;4973500;28;20173;-90
2022/09/27 05:09:32;;;;;;;4.27;3.03;;;10.70;99.90;;;;;;4973282;28;20219;-90
2022/09/27 05:11:58;;;;;;;4.10;2.97;;;10.60;99.90;;;;;;4974380;28;20248;-92
2022/09/27 05:14:25;;;;;;;4.67;3.03;;;10.70;99.90;;;;;;4995065;28;20212;-91
2022/09/27 05:16:53;;;;;;;6.03;2.97;;;10.60;99.90;;;;;;4979416;28;20187;-91
2022/09/27 05:19:18;;;;;;;4.00;2.60;;;10.60;99.90;;;;;;4992967;28;20180;-90
2022/09/27 05:21:49;;;;;;;5.10;3.10;;;10.90;99.90;;;;;;4988792;28;20251;-92
2022/09/27 05:24:20;;;;;;;5.67;2.50;;;10.60;99.90;;;;;;4990079;28;20185;-90
2022/09/27 05:26:52;;;;;;;4.50;2.93;;;10.60;99.90;;;;;;4975337;28;20168;-91
2022/09/27 05:29:17;;;;;;;5.10;2.80;;;10.70;99.90;;;;;;4980329;28;20211;-91
2022/09/27 05:32:00;;;;;;;5.47;2.97;;;10.70;99.90;;;;;;4990400;28;20189;-94
2022/09/27 05:34:31;;;;;;;5.40;2.80;;;10.70;99.90;;;;;;4993490;28;20169;-91
2022/09/27 05:37:00;;;;;;;4.83;3.50;;;10.70;99.90;;;;;;4992440;28;20184;-91
2022/09/27 05:39:50;;;;;;;4.43;3.10;;;10.70;99.90;;;;;;4991849;28;20184;-93
2022/09/27 05:42:22;;;;;;;4.70;3.00;;;10.60;99.90;;;;;;4988093;28;20172;-92
2022/09/27 05:44:52;;;;;;;4.47;3.13;;;10.50;99.90;;;;;;4982362;28;20641;-93
2022/09/27 05:47:27;;;;;;;6.97;3.33;;;10.20;99.90;;;;;;4973311;28;20161;-93
2022/09/27 05:49:54;;;;;;;4.60;3.07;;;10.40;99.90;;;;;;4982040;28;20161;-94
2022/09/27 05:52:20;;;;;;;5.63;3.10;;;10.40;99.90;;;;;;4997787;28;20199;-92
2022/09/27 05:54:49;;;;;;;5.07;3.20;;;10.50;99.90;;;;;;4995215;28;20172;-89
2022/09/27 05:57:33;;;;;;;5.63;3.10;;;10.40;99.90;;;;;;4986960;28;20248;-92
2022/09/27 06:00:03;;;;;;;5.70;2.80;;;10.40;99.90;;;;;;4985119;28;20172;-94
2022/09/27 06:02:29;;;;;;;5.77;3.07;;;10.30;99.90;;;;;;4965590;28;20243;-93
2022/09/27 06:04:57;;;;;;;4.80;2.57;;;10.40;99.90;;;;;;4978424;28;20180;-93
2022/09/27 06:07:28;;;;;;;7.60;2.97;;;10.30;99.90;;;;;;4961772;28;20172;-92
2022/09/27 06:09:56;;;;;;;5.67;2.63;;;10.30;99.90;;;;;;4977520;28;20248;-91
2022/09/27 06:12:30;;;;;;;5.00;2.47;;;10.30;99.90;;;;;;4966511;28;20180;-91
2022/09/27 06:15:06;;;;;;;3.60;2.50;;;10.30;99.90;;;;;;4992465;28;20269;-93
2022/09/27 06:17:35;;;;;;;4.47;2.43;;;10.30;99.90;;;;;;4966962;29;20184;-90
2022/09/27 06:20:02;;;;;;;4.90;2.40;;;10.10;99.90;;;;;;4980664;28;20176;-94
2022/09/27 06:22:28;;;;;;;4.50;2.33;;;10.30;99.90;;;;;;4965782;28;20160;-89
2022/09/27 06:24:54;;;;;;;3.80;2.77;;;10.40;99.90;;;;;;4976643;28;20196;-91
2022/09/27 06:27:21;;;;;;;6.57;2.77;;;10.50;99.90;;;;;;4976354;28;20327;-89
2022/09/27 06:29:58;;;;;;;6.67;3.87;;;10.50;99.90;;;;;;4962184;28;20250;-95
2022/09/27 06:32:26;;;;;;;3.23;2.40;;;10.40;99.90;;;;;;4977179;28;20383;-88
2022/09/27 06:34:52;;;;;;;5.13;3.20;;;10.50;99.90;;;;;;4978672;28;20184;-90
2022/09/27 06:37:17;;;;;;;4.93;2.30;;;10.40;99.90;;;;;;4983049;28;20265;-87
2022/09/27 06:39:43;;;;;;;5.67;2.50;;;10.40;99.90;;;;;;4975187;28;20172;-89
2022/09/27 06:42:10;;;;;;;4.53;2.37;;;10.30;99.90;;;;;;4960784;28;20180;-87
2022/09/27 06:44:35;;;;;;;6.77;2.70;;;10.40;99.90;;;;;;4973829;28;20589;-87
2022/09/27 06:47:01;;;;;;;4.57;2.70;;;10.40;99.90;;;;;;4959026;28;20191;-87
2022/09/27 06:49:28;;;;;;;6.70;2.90;;;10.60;99.90;;;;;;4975728;28;20700;-90
2022/09/27 06:51:54;;;;;;;7.83;3.10;;;10.90;99.90;;;;;;4975763;28;20629;-88
2022/09/27 06:54:19;;;;;;;7.07;2.90;;;10.70;99.90;;;;;;4976831;28;20172;-90
2022/09/27 06:56:49;;;;;;;5.70;3.40;;;10.70;99.90;;;;;;4976275;28;20548;-90
2022/09/27 07:02:01;;;;;;;6.50;2.93;;;10.70;99.90;;;;;;4957241;28;20211;-88
2022/09/27 07:04:28;;;;;;;5.87;2.90;;;10.60;99.90;;;;;;4957689;29;20180;-89
2022/09/27 07:07:00;;;;;;;5.30;2.70;;;10.70;99.90;;;;;;4957883;29;20296;-89
2022/09/27 07:09:26;;;;;;;7.43;3.47;;;10.70;99.90;;;;;;4955834;29;20224;-88
2022/09/27 07:11:54;;;;;;;6.00;3.63;;;10.60;99.90;;;;;;4955756;29;20694;-88
2022/09/27 07:14:20;;;;;;;5.37;3.67;;;10.70;99.90;;;;;;4970841;28;20288;-85
2022/09/27 07:16:46;;;;;;;4.70;3.30;;;10.70;99.90;;;;;;4954252;28;20672;-85
2022/09/27 07:19:13;;;;;;;4.90;3.20;;;10.80;99.90;;;;;;4939260;29;20177;-87
2022/09/27 07:21:39;;;;;;;5.47;3.20;;;10.70;99.90;;;;;;4953345;28;20540;-89
2022/09/27 07:24:10;;;;;;;5.23;3.23;;;10.70;99.90;;;;;;4953169;28;20231;-87
2022/09/27 07:26:38;;;;;;;5.47;3.10;;;10.60;99.90;;;;;;4946844;29;20176;-87
2022/09/27 07:29:04;;;;;;;5.03;3.40;;;10.70;99.90;;;;;;4959028;29;20219;-87
2022/09/27 07:31:30;;;;;;;4.63;3.20;;;10.70;99.90;;;;;;4955875;28;20186;-91
2022/09/27 07:33:56;;;;;;;6.43;3.40;;;10.70;99.90;;;;;;4955112;28;20182;-88
2022/09/27 07:36:22;;;;;;;6.67;3.27;;;10.70;99.90;;;;;;4973730;28;20298;-85
2022/09/27 07:38:48;;;;;;;5.57;3.70;;;10.60;99.90;;;;;;4971584;28;20194;-87
2022/09/27 07:41:14;;;;;;;5.27;3.40;;;10.70;99.90;;;;;;4971131;28;20607;-89
2022/09/27 07:43:46;;;;;;;7.87;3.07;;;10.80;99.90;;;;;;4971922;28;20283;-86
2022/09/27 07:46:12;;;;;;;8.10;4.20;;;10.80;99.90;;;;;;4975846;28;20189;-90
2022/09/27 07:48:38;;;;;;;4.33;3.43;;;10.80;99.90;;;;;;4980250;28;20218;-87
2022/09/27 07:51:06;;;;;;;6.03;3.57;;;10.80;99.90;;;;;;4977295;28;20180;-87
2022/09/27 07:53:33;;;;;;;6.57;3.33;;;10.80;99.90;;;;;;4977860;28;20277;-87
2022/09/27 07:55:58;;;;;;;4.90;3.17;;;10.80;99.90;;;;;;4977843;28;20207;-87
2022/09/27 07:58:25;;;;;;;5.93;2.80;;;10.90;99.90;;;;;;4991515;28;20172;-87
2022/09/27 08:00:53;;;;;;;5.20;3.37;;;10.70;99.90;;;;;;4992618;28;20207;-87
2022/09/27 08:03:19;;;;;;;5.23;3.03;;;10.70;99.90;;;;;;4982598;28;20255;-85
2022/09/27 08:05:47;;;;;;;7.53;3.53;;;10.70;99.90;;;;;;4961513;28;20172;-86
2022/09/27 08:08:13;;;;;;;9.17;3.43;;;10.70;99.90;;;;;;4974802;28;20271;-86
2022/09/27 08:10:46;;;;;;;7.27;2.90;;;10.90;99.90;;;;;;4977447;28;20168;-87
2022/09/27 08:13:18;;;;;;;3.50;3.00;;;10.90;99.90;;;;;;4980351;28;20184;-86
2022/09/27 08:15:44;;;;;;;6.73;2.93;;;10.90;99.90;;;;;;4982648;28;20178;-85
2022/09/27 08:18:12;;;;;;;5.57;3.00;;;10.90;99.90;;;;;;4990999;28;20164;-86
2022/09/27 08:20:39;;;;;;;4.87;2.53;;;10.90;99.90;;;;;;4991512;28;20180;-85
2022/09/27 08:23:05;;;;;;;7.23;3.10;;;10.90;99.90;;;;;;4987032;28;20180;-85
2022/09/27 08:25:57;;;;;;;4.03;2.40;;;11.00;99.90;;;;;;4990565;28;20290;-87
2022/09/27 08:28:26;;;;;;;4.67;2.20;;;11.00;99.90;;;;;;4968108;28;20283;-85
2022/09/27 08:30:58;;;;;;;3.60;1.97;;;11.00;99.90;;;;;;4965046;29;20257;-87
2022/09/27 08:33:25;;;;;;;4.77;2.10;;;11.00;99.90;;;;;;4959365;29;20188;-86
2022/09/27 08:35:51;;;;;;;3.13;2.13;;;10.90;99.90;;;;;;4957857;29;20596;-85
2022/09/27 08:38:21;;;;;;;5.30;1.90;;;11.00;99.90;;;;;;4958718;29;20172;-86
2022/09/27 08:41:05;;;;;;;7.23;2.20;;;10.80;99.90;;;;;;4956655;29;20180;-87
2022/09/27 08:43:47;;;;;;;6.17;2.40;;;10.70;99.90;;;;;;4958063;29;20176;-87
2022/09/27 08:46:34;;;;;;;4.23;2.63;;;10.70;99.90;;;;;;4959199;29;20207;-86
2022/09/27 08:49:11;;;;;;;4.27;1.80;;;10.80;99.90;;;;;;4955358;29;20255;-84
2022/09/27 08:51:39;;;;;;;4.87;2.30;;;10.90;99.90;;;;;;4955749;28;20240;-87
2022/09/27 08:54:13;;;;;;;4.70;2.30;;;10.90;99.90;;;;;;4954247;28;20191;-85
2022/09/27 08:56:39;;;;;;;4.20;2.33;;;10.90;99.90;;;;;;4972032;28;20173;-88
2022/09/27 08:59:20;;;;;;;6.07;3.13;;;10.90;99.90;;;;;;4975914;28;20180;-88
2022/09/27 09:01:50;;;;;;;5.53;2.17;;;10.90;99.90;;;;;;4979624;28;20199;-87
2022/09/27 09:04:31;;;;;;;4.80;2.10;;;11.00;99.90;;;;;;4978587;28;20697;-91
2022/09/27 09:07:06;;;;;;;4.90;2.10;;;10.80;99.90;;;;;;4945444;28;20188;-85
2022/09/27 09:09:57;;;;;;;5.47;1.87;;;10.90;99.90;;;;;;4938697;29;20220;-86
2022/09/27 09:12:51;;;;;;;3.27;1.90;;;10.70;99.90;;;;;;4937682;29;20173;-87
2022/09/27 09:15:53;;;;;;;2.93;2.00;;;10.60;99.90;;;;;;4953723;28;20181;-85
2022/09/27 09:18:24;;;;;;;9.73;2.33;;;10.70;99.90;;;;;;4940089;29;20187;-86
2022/09/27 09:21:45;;;;;;;5.50;2.37;;;10.80;99.90;;;;;;4942038;29;20257;-85
2022/09/27 09:24:29;;;;;;;3.27;1.80;;;10.90;99.90;;;;;;4940731;28;20204;-85
2022/09/27 09:27:21;;;;;;;7.93;3.63;;;10.90;99.90;;;;;;4946756;29;20169;-85
2022/09/27 09:30:20;;;;;;;7.10;4.73;;;11.00;99.90;;;;;;4972155;28;20204;-84
2022/09/27 09:33:14;;;;;;;7.30;3.83;;;11.20;99.90;;;;;;4967250;28;20637;-85
2022/09/27 09:35:49;;;;;;;5.90;2.40;;;11.40;99.90;;;;;;4978290;28;20173;-85
2022/09/27 09:38:24;;;;;;;4.30;2.23;;;11.50;99.90;;;;;;4976938;28;20168;-87
2022/09/27 09:40:56;;;;;;;6.07;2.53;;;11.40;99.90;;;;;;4959786;29;20182;-86
2022/09/27 09:43:37;;;;;;;4.60;2.00;;;11.60;99.90;;;;;;4960354;28;20243;-86
2022/09/27 09:46:14;;;;;;;5.07;2.00;;;11.60;99.90;;;;;;4975989;28;20697;-85
2022/09/27 09:48:42;;;;;;;5.33;1.80;;;11.70;99.90;;;;;;4941203;29;20221;-85
2022/09/27 09:51:21;;;;;;;4.53;2.40;;;11.70;99.90;;;;;;4943748;29;20209;-86
2022/09/27 09:54:01;;;;;;;4.60;1.70;;;11.90;99.90;;;;;;4965523;28;20185;-87
2022/09/27 09:56:32;;;;;;;3.53;1.60;;;11.90;99.90;;;;;;4967710;28;20176;-86
2022/09/27 09:59:34;;;;;;;4.63;1.60;;;11.90;99.90;;;;;;4971780;28;20184;-86
2022/09/27 10:02:25;;;;;;;4.33;1.70;;;11.90;99.90;;;;;;4958264;29;20185;-84
2022/09/27 10:04:52;;;;;;;7.57;2.00;;;12.00;99.90;;;;;;4958914;28;20255;-86
2022/09/27 10:07:22;;;;;;;4.77;2.00;;;12.30;99.90;;;;;;4972764;28;20610;-86
2022/09/27 10:10:08;;;;;;;6.77;2.60;;;12.30;99.30;;;;;;4956104;29;20189;-85
2022/09/27 10:12:46;;;;;;;8.67;2.50;;;12.50;97.20;;;;;;4961387;28;20178;-84
2022/09/27 10:15:23;;;;;;;5.50;2.17;;;12.60;96.50;;;;;;4972261;28;20188;-86
2022/09/27 10:17:56;;;;;;;7.17;1.90;;;12.70;95.10;;;;;;4943945;29;20177;-85
2022/09/27 10:20:41;;;;;;;5.53;1.83;;;12.70;93.30;;;;;;4956311;28;20194;-86
2022/09/27 10:23:20;;;;;;;7.53;2.10;;;12.90;94.00;;;;;;4973232;28;20184;-85
2022/09/27 10:25:58;;;;;;;8.07;2.70;;;12.70;91.80;;;;;;4976138;28;20173;-86
2022/09/27 10:28:40;;;;;;;7.53;2.43;;;12.70;91.50;;;;;;4975240;28;20209;-85
2022/09/27 10:31:34;;;;;;;6.07;2.33;;;12.40;90.90;;;;;;4980842;28;20203;-86
2022/09/27 10:34:04;;;;;;;5.03;2.27;;;12.40;91.10;;;;;;4998818;28;20156;-85
2022/09/27 10:36:35;;;;;;;8.07;2.60;;;12.50;90.50;;;;;;4998560;28;20236;-84
2022/09/27 10:39:22;;;;;;;6.20;2.30;;;12.60;92.00;;;;;;4996919;28;20187;-83
2022/09/27 10:42:24;;;;;;;6.77;2.53;;;12.70;90.40;;;;;;4998675;28;20258;-89
2022/09/27 10:44:50;;;;;;;6.20;2.17;;;12.80;90.00;;;;;;4984960;28;20283;-88
2022/09/27 10:47:22;;;;;;;7.00;2.53;;;12.70;88.60;;;;;;4985952;28;20179;-89
2022/09/27 10:49:52;;;;;;;6.57;2.40;;;12.90;85.60;;;;;;4993728;28;20212;-87
2022/09/27 10:52:23;;;;;;;8.10;2.80;;;13.00;87.90;;;;;;4995140;28;20329;-85
2022/09/27 10:54:59;;;;;;;9.10;2.30;;;13.00;80.50;;;;;;4984435;28;20164;-88
2022/09/27 10:57:27;;;;;;;8.10;2.40;;;13.10;78.40;;;;;;4982650;28;20240;-88
2022/09/27 11:00:21;;;;;;;9.97;3.30;;;13.10;76.50;;;;;;4982663;28;20184;-87
2022/09/27 11:02:55;;;;;;;10.47;2.97;;;13.40;79.00;;;;;;4983869;28;20189;-87
2022/09/27 11:05:26;;;;;;;8.63;2.40;;;13.30;70.00;;;;;;4966571;28;20297;-85
2022/09/27 11:08:01;;;;;;;3.90;1.57;;;13.30;69.20;;;;;;4981500;28;20229;-87
2022/09/27 11:10:34;;;;;;;4.33;1.43;;;13.30;56.60;;;;;;4980634;28;20586;-88
2022/09/27 11:13:19;;;;;;;3.63;1.17;;;13.00;56.00;;;;;;4981952;28;20182;-85
2022/09/27 11:16:03;;;;;;;2.63;1.10;;;12.70;54.80;;;;;;4982404;28;20183;-88
2022/09/27 11:18:56;;;;;;;4.13;1.33;;;12.40;52.70;;;;;;4959131;29;20291;-86
2022/09/27 11:21:49;;;;;;;2.80;0.93;;;12.20;56.10;;;;;;4959350;29;20199;-85
2022/09/27 11:24:53;;;;;;;3.67;1.10;;;12.00;61.70;;;;;;4958911;28;20195;-86
2022/09/27 11:27:24;;;;;;;2.50;0.97;;;12.00;68.00;;;;;;4968181;28;20246;-88
2022/09/27 11:30:06;;;;;;;2.00;0.90;;;11.90;63.30;;;;;;4966291;28;20223;-87
2022/09/27 11:32:45;;;;;;;4.20;1.30;;;12.20;63.10;;;;;;4968620;28;20187;-85
2022/09/27 11:35:33;;;;;;;4.73;1.27;;;12.20;64.10;;;;;;4960958;28;20172;-85
2022/09/27 11:38:31;;;;;;;1.90;1.10;;;12.30;56.70;;;;;;4973355;28;20177;-88
2022/09/27 11:41:27;;;;;;;3.43;1.20;;;12.30;56.10;;;;;;4981063;28;20265;-87
2022/09/27 11:43:56;;;;;;;5.53;1.17;;;12.30;48.30;;;;;;4980242;28;20169;-87
2022/09/27 11:46:28;;;;;;;3.03;0.90;;;12.40;47.60;;;;;;4975199;28;20189;-88
2022/09/27 11:49:25;;;;;;;2.90;0.90;;;12.40;39.00;;;;;;4970108;28;20220;-88
2022/09/27 11:52:11;;;;;;;4.47;1.30;;;12.50;42.80;;;;;;4970446;28;20181;-89
2022/09/27 11:58:03;;;;;;;5.47;1.40;;;12.20;55.00;;;;;;4967060;28;20247;-87
2022/09/27 12:00:46;;;;;;;3.10;1.00;;;12.10;55.10;;;;;;4965435;28;20199;-86
2022/09/27 12:03:30;;;;;;;5.27;1.27;;;12.00;59.30;;;;;;4987526;28;20188;-85
2022/09/27 12:06:02;;;;;;;8.03;1.40;;;12.10;60.20;;;;;;4968353;28;20181;-87
2022/09/27 12:08:41;;;;;;;5.00;1.00;;;12.00;59.90;;;;;;4965451;28;20208;-88
2022/09/27 12:11:17;;;;;;;3.60;1.20;;;12.10;58.70;;;;;;4956714;28;20235;-86
2022/09/27 12:14:12;;;;;;;3.30;1.20;;;12.30;61.10;;;;;;4969438;28;20192;-88
2022/09/27 12:16:40;;;;;;;5.30;1.20;;;12.60;59.10;;;;;;4990628;28;20202;-84
2022/09/27 12:19:17;;;;;;;4.27;1.23;;;13.00;52.90;;;;;;4986196;28;20206;-85
2022/09/27 12:21:46;;;;;;;3.47;1.50;;;13.20;50.40;;;;;;4989320;28;20215;-84
2022/09/27 12:24:22;;;;;;;6.27;1.60;;;13.30;41.00;;;;;;4989185;28;20219;-85
2022/09/27 12:26:56;;;;;;;3.40;1.27;;;13.50;39.70;;;;;;4984628;28;20203;-85
2022/09/27 12:29:33;;;;;;;3.90;1.60;;;13.50;33.00;;;;;;4981770;28;20219;-86
2022/09/27 12:32:09;;;;;;;4.53;1.53;;;13.70;31.90;;;;;;4979207;28;20176;-86
2022/09/27 12:35:03;;;;;;;4.03;1.60;;;13.70;26.00;;;;;;4963030;28;20184;-85
2022/09/27 12:37:48;;;;;;;4.03;1.37;;;13.70;3.30;;;;;;4978503;28;20259;-87
2022/09/27 12:40:33;;;;;;;3.50;1.20;;;13.70;1.00;;;;;;4964675;28;20180;-87
2022/09/27 12:43:20;;;;;;;4.80;1.50;;;13.90;1.00;;;;;;4975964;28;20174;-86
2022/09/27 12:45:59;;;;;;;3.93;1.50;;;13.80;1.00;;;;;;4959851;29;20182;-87
2022/09/27 12:48:51;;;;;;;4.57;1.80;;;13.70;1.00;;;;;;4961369;28;20219;-87
2022/09/27 12:51:22;;;;;;;5.43;1.60;;;13.70;1.00;;;;;;4959729;28;20186;-87
2022/09/27 12:54:22;;;;;;;3.90;1.40;;;13.40;13.90;;;;;;4975604;28;20256;-86
2022/09/27 12:57:12;;;;;;;3.10;1.40;;;13.50;29.10;;;;;;4978098;28;20168;-87
2022/09/27 12:59:43;;;;;;;3.80;1.43;;;13.10;36.00;;;;;;4984285;28;20189;-86
2022/09/27 13:03:01;;;;;;;1.53;0.90;;;12.90;33.60;;;;;;4974582;29;20215;-87
2022/09/27 13:06:16;;;;;;;2.33;1.10;;;12.60;30.50;;;;;;4950633;29;20201;-88
2022/09/27 13:08:52;;;;;;;2.93;0.93;;;12.90;37.50;;;;;;4939542;28;20221;-86
2022/09/27 13:11:34;;;;;;;2.53;0.80;;;12.90;19.60;;;;;;4964131;29;20191;-87
2022/09/27 13:14:01;;;;;;;2.63;1.10;;;12.90;15.20;;;;;;4981433;28;20236;-86
2022/09/27 13:16:27;;;;;;;3.67;1.00;;;12.90;22.50;;;;;;4985395;28;20164;-85
2022/09/27 13:19:02;;;;;;;2.73;1.17;;;13.10;26.60;;;;;;4973220;28;20188;-86
2022/09/27 13:21:50;;;;;;;2.20;1.03;;;13.30;15.00;;;;;;4992968;28;20210;-87
2022/09/27 13:24:45;;;;;;;4.40;1.13;;;13.40;21.00;;;;;;4968598;28;20194;-86
2022/09/27 13:27:37;;;;;;;3.13;0.93;;;13.70;19.30;;;;;;4982314;28;20203;-88
2022/09/27 13:30:08;;;;;;;4.17;1.60;;;13.80;2.90;;;;;;4983239;28;20192;-86
2022/09/27 13:33:08;;;;;;;5.40;1.40;;;13.80;15.30;;;;;;4966313;29;20185;-87
2022/09/27 13:35:36;;;;;;;4.50;1.43;;;13.70;18.10;;;;;;4960816;29;20173;-86
2022/09/27 13:38:05;;;;;;;5.20;1.40;;;13.60;10.70;;;;;;4983227;28;20168;-88
2022/09/27 13:40:34;;;;;;;4.20;1.47;;;13.70;22.80;;;;;;4981418;28;20182;-85